createdAt,value
2023-05-22T00:01:14.990Z,98491.75
2023-05-22T00:03:43.791Z,98490.91
2023-05-22T00:06:12.244Z,98487.41
2023-05-22T00:08:40.648Z,98488.41
2023-05-22T00:11:09.288Z,98479.47
2023-05-22T00:13:39.534Z,98478.66
2023-05-22T00:16:09.127Z,98477.66
2023-05-22T00:18:37.694Z,98476.78
2023-05-22T00:21:06.381Z,98481.34
2023-05-22T00:23:34.940Z,98477.66
2023-05-22T00:26:03.366Z,98470.56
2023-05-22T00:28:31.938Z,98470.56
2023-05-22T00:31:01.701Z,98470.56
2023-05-22T00:33:30.094Z,98459.81
2023-05-22T00:35:58.746Z,98458.16
2023-05-22T00:38:32.596Z,98469.91
2023-05-22T00:41:01.504Z,98458.16
2023-05-22T00:43:30.052Z,98455.47
2023-05-22T00:45:58.802Z,98460.84
2023-05-22T00:48:28.861Z,98467.22
2023-05-22T00:50:58.561Z,98464.53
2023-05-22T00:53:28.225Z,98465.56
2023-05-22T00:55:57.217Z,98462.03
2023-05-22T00:58:27.157Z,98456.66
2023-05-22T01:00:55.964Z,98463.91
2023-05-22T01:03:27.245Z,98459.50
2023-05-22T01:05:57.299Z,98461.38
2023-05-22T01:08:26.591Z,98453.31
2023-05-22T01:10:58.324Z,98447.09
2023-05-22T01:13:31.282Z,98442.53
2023-05-22T01:16:06.670Z,98447.91
2023-05-22T01:18:40.863Z,98447.25
2023-05-22T01:21:14.838Z,98450.78
2023-05-22T01:24:28.510Z,98448.09
2023-05-22T01:27:17.446Z,98447.25
2023-05-22T01:29:49.005Z,98441.88
2023-05-22T01:32:22.732Z,98444.56
2023-05-22T01:34:54.533Z,98449.94
2023-05-22T01:37:23.153Z,98455.53
2023-05-22T01:39:52.466Z,98455.53
2023-05-22T01:42:21.437Z,98451.13
2023-05-22T01:44:50.149Z,98441.41
2023-05-22T01:47:20.212Z,98443.06
2023-05-22T01:49:48.629Z,98441.41
2023-05-22T01:52:20.895Z,98436.84
2023-05-22T01:54:54.880Z,98440.56
2023-05-22T01:57:28.258Z,98440.56
2023-05-22T02:00:07.397Z,98445.94
2023-05-22T02:02:37.532Z,98434.34
2023-05-22T02:05:07.206Z,98439.75
2023-05-22T02:07:37.000Z,98438.88
2023-05-22T02:10:06.825Z,98433.50
2023-05-22T02:12:35.543Z,98438.03
2023-05-22T02:15:04.982Z,98437.22
2023-05-22T02:17:40.411Z,98439.06
2023-05-22T02:20:14.618Z,98448.16
2023-05-22T02:22:44.478Z,98438.41
2023-05-22T02:25:15.034Z,98441.09
2023-05-22T02:27:44.067Z,98447.31
2023-05-22T02:30:13.435Z,98432.38
2023-05-22T02:32:43.451Z,98429.50
2023-05-22T02:35:12.163Z,98432.19
2023-05-22T02:37:41.432Z,98429.69
2023-05-22T02:40:11.774Z,98429.69
2023-05-22T02:42:40.432Z,98434.41
2023-05-22T02:45:10.939Z,98434.22
2023-05-22T02:47:39.634Z,98424.28
2023-05-22T02:50:10.549Z,98426.34
2023-05-22T02:52:39.419Z,98428.19
2023-05-22T02:55:12.478Z,98426.34
2023-05-22T02:57:41.407Z,98435.41
2023-05-22T03:00:11.754Z,98437.09
2023-05-22T03:02:40.648Z,98438.94
2023-05-22T03:05:11.145Z,98428.19
2023-05-22T03:07:40.153Z,98433.72
2023-05-22T03:10:09.890Z,98438.09
2023-05-22T03:12:38.285Z,98425.66
2023-05-22T03:15:08.978Z,98431.03
2023-05-22T03:17:37.700Z,98421.28
2023-05-22T03:20:09.048Z,98424.81
2023-05-22T03:22:39.132Z,98427.50
2023-05-22T03:25:10.251Z,98432.03
2023-05-22T03:27:40.569Z,98425.81
2023-05-22T03:30:10.163Z,98432.03
2023-05-22T03:32:38.788Z,98423.13
2023-05-22T03:35:08.828Z,98420.63
2023-05-22T03:37:38.647Z,98417.94
2023-05-22T03:40:09.053Z,98418.78
2023-05-22T03:42:38.617Z,98422.47
2023-05-22T03:45:09.249Z,98430.38
2023-05-22T03:47:37.623Z,98428.69
2023-05-22T03:50:06.999Z,98430.53
2023-05-22T03:52:35.956Z,98434.09
2023-05-22T03:55:07.178Z,98430.19
2023-05-22T03:57:35.840Z,98441.78
2023-05-22T04:00:09.796Z,98444.47
2023-05-22T04:02:40.101Z,98444.47
2023-05-22T04:05:10.211Z,98445.19
2023-05-22T04:07:38.712Z,98442.50
2023-05-22T04:10:09.980Z,98442.50
2023-05-22T04:12:38.337Z,98442.50
2023-05-22T04:15:09.873Z,98440.63
2023-05-22T04:17:41.206Z,98444.16
2023-05-22T04:20:11.561Z,98439.59
2023-05-22T04:22:41.290Z,98441.25
2023-05-22T04:25:11.888Z,98433.38
2023-05-22T04:27:40.492Z,98436.75
2023-05-22T04:30:10.635Z,98431.38
2023-05-22T04:32:39.223Z,98427.66
2023-05-22T04:35:10.165Z,98429.31
2023-05-22T04:37:41.146Z,98418.53
2023-05-22T04:40:11.966Z,98427.28
2023-05-22T04:42:40.738Z,98422.75
2023-05-22T04:45:10.252Z,98416.53
2023-05-22T04:47:41.865Z,98421.91
2023-05-22T04:50:12.084Z,98419.22
2023-05-22T04:52:40.556Z,98427.28
2023-05-22T04:55:12.268Z,98425.44
2023-05-22T04:57:40.756Z,98423.59
2023-05-22T05:00:11.182Z,98431.47
2023-05-22T05:02:39.656Z,98418.84
2023-05-22T05:05:08.861Z,98423.22
2023-05-22T05:07:39.568Z,98423.22
2023-05-22T05:10:10.785Z,98424.06
2023-05-22T05:12:39.324Z,98429.25
2023-05-22T05:15:09.609Z,98422.66
2023-05-22T05:17:38.853Z,98423.69
2023-05-22T05:20:09.325Z,98425.38
2023-05-22T05:22:38.207Z,98427.88
2023-05-22T05:25:10.926Z,98432.91
2023-05-22T05:27:41.497Z,98432.91
2023-05-22T05:30:11.257Z,98436.25
2023-05-22T05:32:39.984Z,98439.13
2023-05-22T05:35:09.842Z,98433.38
2023-05-22T05:37:38.805Z,98432.75
2023-05-22T05:40:09.834Z,98434.59
2023-05-22T05:42:39.923Z,98439.97
2023-05-22T05:45:09.665Z,98431.72
2023-05-22T05:47:38.279Z,98434.22
2023-05-22T05:50:07.782Z,98431.53
2023-05-22T05:52:36.133Z,98434.88
2023-05-22T05:55:04.774Z,98431.34
2023-05-22T05:57:33.394Z,98431.84
2023-05-22T06:00:03.285Z,98430.81
2023-05-22T06:02:32.640Z,98430.97
2023-05-22T06:05:02.565Z,98433.88
2023-05-22T06:07:31.750Z,98432.66
2023-05-22T06:10:00.363Z,98429.97
2023-05-22T06:12:28.851Z,98429.69
2023-05-22T06:14:57.281Z,98424.00
2023-05-22T06:17:27.482Z,98425.38
2023-05-22T06:19:56.614Z,98427.41
2023-05-22T06:22:26.067Z,98423.34
2023-05-22T06:24:54.932Z,98419.44
2023-05-22T06:27:24.107Z,98413.41
2023-05-22T06:29:52.688Z,98411.56
2023-05-22T06:32:21.592Z,98414.91
2023-05-22T06:34:51.799Z,98414.91
2023-05-22T06:37:20.194Z,98408.69
2023-05-22T06:39:48.643Z,98417.22
2023-05-22T06:42:17.307Z,98417.41
2023-05-22T06:44:45.739Z,98421.78
2023-05-22T06:47:14.595Z,98413.41
2023-05-22T06:49:43.017Z,98417.50
2023-05-22T06:52:13.909Z,98406.72
2023-05-22T06:54:44.528Z,98406.88
2023-05-22T06:57:13.241Z,98411.28
2023-05-22T06:59:41.947Z,98409.59
2023-05-22T07:02:10.312Z,98406.06
2023-05-22T07:04:38.961Z,98404.03
2023-05-22T07:07:07.577Z,98415.47
2023-05-22T07:09:37.397Z,98403.00
2023-05-22T07:12:07.125Z,98403.38
2023-05-22T07:14:35.700Z,98403.38
2023-05-22T07:17:04.172Z,98410.41
2023-05-22T07:19:32.878Z,98395.97
2023-05-22T07:22:01.907Z,98402.16
2023-05-22T07:24:31.037Z,98412.78
2023-05-22T07:27:01.285Z,98412.78
2023-05-22T07:29:29.699Z,98410.53
2023-05-22T07:31:58.661Z,98409.72
2023-05-22T07:34:32.069Z,98402.00
2023-05-22T07:37:00.670Z,98411.28
2023-05-22T07:39:29.158Z,98401.16
2023-05-22T07:41:58.877Z,98400.50
2023-05-22T07:44:30.923Z,98405.91
2023-05-22T07:46:59.883Z,98404.88
2023-05-22T07:49:28.384Z,98403.19
2023-05-22T07:51:56.840Z,98397.63
2023-05-22T07:54:25.706Z,98406.72
2023-05-22T07:56:56.253Z,98403.38
2023-05-22T07:59:25.797Z,98403.19
2023-05-22T08:01:58.005Z,98392.44
2023-05-22T08:04:27.931Z,98399.66
2023-05-22T08:06:57.280Z,98403.00
2023-05-22T08:09:26.114Z,98395.97
2023-05-22T08:11:54.693Z,98395.97
2023-05-22T08:14:23.200Z,98395.97
2023-05-22T08:16:51.870Z,98403.19
2023-05-22T08:19:22.360Z,98395.97
2023-05-22T08:21:53.481Z,98395.97
2023-05-22T08:24:22.455Z,98407.09
2023-05-22T08:26:50.857Z,98400.00
2023-05-22T08:29:19.681Z,98398.34
2023-05-22T08:31:48.162Z,98396.03
2023-05-22T08:34:17.127Z,98395.84
2023-05-22T08:36:46.935Z,98397.53
2023-05-22T08:39:15.652Z,98389.63
2023-05-22T08:41:44.637Z,98392.97
2023-05-22T08:44:13.454Z,98388.63
2023-05-22T08:46:44.707Z,98386.75
2023-05-22T08:49:14.049Z,98391.31
2023-05-22T08:51:43.787Z,98382.94
2023-05-22T08:54:14.234Z,98395.38
2023-05-22T08:56:55.751Z,98384.59
2023-05-22T08:59:25.805Z,98380.06
2023-05-22T09:01:54.602Z,98368.09
2023-05-22T09:04:24.324Z,98377.50
2023-05-22T09:06:53.394Z,98379.34
2023-05-22T09:09:23.281Z,98369.59
2023-05-22T09:11:51.930Z,98370.78
2023-05-22T09:14:20.375Z,98367.25
2023-05-22T09:16:49.914Z,98368.94
2023-05-22T09:19:18.784Z,98374.50
2023-05-22T09:21:48.066Z,98378.03
2023-05-22T09:24:17.052Z,98363.91
2023-05-22T09:26:48.406Z,98367.25
2023-05-22T09:29:17.397Z,98371.97
2023-05-22T09:31:46.601Z,98370.97
2023-05-22T09:34:15.813Z,98368.09
2023-05-22T09:36:44.830Z,98361.41
2023-05-22T09:39:13.818Z,98369.28
2023-05-22T09:41:42.750Z,98357.31
2023-05-22T09:44:16.068Z,98368.09
2023-05-22T09:46:46.661Z,98359.34
2023-05-22T09:49:16.858Z,98358.38
2023-05-22T09:51:48.186Z,98359.84
2023-05-22T09:54:17.890Z,98355.31
2023-05-22T09:56:47.056Z,98357.16
2023-05-22T09:59:17.491Z,98348.06
2023-05-22T10:01:45.961Z,98356.13
2023-05-22T10:04:15.740Z,98363.22
2023-05-22T10:06:44.417Z,98352.53
2023-05-22T10:09:19.278Z,98356.59
2023-05-22T10:11:48.168Z,98355.97
2023-05-22T10:14:18.369Z,98342.50
2023-05-22T10:16:47.011Z,98349.75
2023-05-22T10:19:16.910Z,98347.88
2023-05-22T10:21:45.756Z,98345.19
2023-05-22T10:24:14.508Z,98349.09
2023-05-22T10:26:44.491Z,98347.41
2023-05-22T10:29:16.237Z,98345.75
2023-05-22T10:31:50.209Z,98337.50
2023-05-22T10:34:25.631Z,98335.81
2023-05-22T10:37:16.599Z,98327.38
2023-05-22T10:39:55.038Z,98336.31
2023-05-22T10:42:23.448Z,98340.66
2023-05-22T10:44:52.171Z,98337.97
2023-05-22T10:47:22.070Z,98337.75
2023-05-22T10:49:51.298Z,98337.75
2023-05-22T10:52:22.205Z,98335.06
2023-05-22T10:54:53.755Z,98335.94
2023-05-22T10:57:23.389Z,98340.66
2023-05-22T10:59:51.825Z,98346.69
2023-05-22T11:02:22.427Z,98337.97
2023-05-22T11:04:51.390Z,98331.75
2023-05-22T11:07:20.111Z,98331.38
2023-05-22T11:09:48.984Z,98333.88
2023-05-22T11:12:20.699Z,98321.44
2023-05-22T11:14:53.362Z,98309.03
2023-05-22T11:17:27.904Z,98324.13
2023-05-22T11:20:01.193Z,98318.75
2023-05-22T11:22:37.405Z,98312.34
2023-05-22T11:25:09.224Z,98314.88
2023-05-22T11:27:39.175Z,98313.19
2023-05-22T11:30:09.641Z,98312.34
2023-05-22T11:32:40.287Z,98317.72
2023-05-22T11:35:09.944Z,98324.44
2023-05-22T11:37:41.865Z,98313.84
2023-05-22T11:40:11.222Z,98318.59
2023-05-22T11:42:39.956Z,98313.84
2023-05-22T11:45:10.166Z,98320.25
2023-05-22T11:47:40.235Z,98305.41
2023-05-22T11:50:11.453Z,98311.81
2023-05-22T11:52:41.094Z,98313.84
2023-05-22T11:55:10.901Z,98312.84
2023-05-22T11:57:39.616Z,98310.97
2023-05-22T12:00:10.943Z,98310.50
2023-05-22T12:02:45.420Z,98306.63
2023-05-22T12:05:14.451Z,98302.72
2023-05-22T12:07:43.046Z,98305.75
2023-05-22T12:10:12.488Z,98311.13
2023-05-22T12:12:41.508Z,98312.00
2023-05-22T12:15:11.475Z,98314.88
2023-05-22T12:17:41.636Z,98315.69
2023-05-22T12:20:14.227Z,98313.84
2023-05-22T12:22:43.751Z,98312.63
2023-05-22T12:25:16.373Z,98292.97
2023-05-22T12:27:46.045Z,98292.41
2023-05-22T12:30:15.949Z,98292.50
2023-05-22T12:32:50.326Z,98289.28
2023-05-22T12:35:19.233Z,98284.06
2023-05-22T12:37:51.301Z,98293.78
2023-05-22T12:40:20.141Z,98282.19
2023-05-22T12:42:49.492Z,98282.19
2023-05-22T12:45:18.879Z,98278.50
2023-05-22T12:47:49.200Z,98276.81
2023-05-22T12:50:17.629Z,98280.53
2023-05-22T12:52:46.336Z,98278.84
2023-05-22T12:55:15.166Z,98275.31
2023-05-22T12:57:43.568Z,98279.88
2023-05-22T13:00:13.987Z,98290.66
2023-05-22T13:02:42.573Z,98288.78
2023-05-22T13:05:12.552Z,98282.41
2023-05-22T13:07:41.331Z,98275.16
2023-05-22T13:10:10.706Z,98272.25
2023-05-22T13:12:39.259Z,98266.06
2023-05-22T13:15:09.294Z,98268.09
2023-05-22T13:17:37.747Z,98268.09
2023-05-22T13:20:08.158Z,98260.00
2023-05-22T13:22:38.177Z,98264.41
2023-05-22T13:25:07.787Z,98264.03
2023-05-22T13:27:36.263Z,98260.69
2023-05-22T13:30:05.720Z,98251.41
2023-05-22T13:32:34.901Z,98264.69
2023-05-22T13:35:03.424Z,98261.13
2023-05-22T13:37:32.012Z,98263.00
2023-05-22T13:40:01.853Z,98260.31
2023-05-22T13:42:30.658Z,98247.03
2023-05-22T13:44:59.340Z,98255.28
2023-05-22T13:47:27.884Z,98255.50
2023-05-22T13:49:56.600Z,98257.31
2023-05-22T13:52:25.360Z,98249.91
2023-05-22T13:54:53.952Z,98250.75
2023-05-22T13:57:23.831Z,98243.53
2023-05-22T13:59:52.381Z,98241.00
2023-05-22T14:02:21.502Z,98237.28
2023-05-22T14:04:51.355Z,98245.34
2023-05-22T14:07:20.249Z,98226.72
2023-05-22T14:09:49.374Z,98236.44
2023-05-22T14:12:18.049Z,98232.75
2023-05-22T14:14:47.932Z,98220.31
2023-05-22T14:17:16.702Z,98223.00
2023-05-22T14:19:45.540Z,98230.69
2023-05-22T14:22:14.512Z,98215.59
2023-05-22T14:24:43.310Z,98223.00
2023-05-22T14:27:12.110Z,98223.81
2023-05-22T14:29:40.947Z,98211.22
2023-05-22T14:32:10.845Z,98210.00
2023-05-22T14:34:39.579Z,98204.06
2023-05-22T14:37:08.755Z,98208.69
2023-05-22T14:39:37.609Z,98205.47
2023-05-22T14:42:06.371Z,98208.16
2023-05-22T14:44:34.845Z,98204.63
2023-05-22T14:47:03.636Z,98201.91
2023-05-22T14:49:33.534Z,98195.53
2023-05-22T14:52:02.576Z,98206.75
2023-05-22T14:54:31.254Z,98194.72
2023-05-22T14:56:59.728Z,98203.16
2023-05-22T14:59:28.226Z,98198.41
2023-05-22T15:01:56.901Z,98208.16
2023-05-22T15:04:25.611Z,98187.47
2023-05-22T15:06:55.406Z,98190.81
2023-05-22T15:09:23.924Z,98196.19
2023-05-22T15:11:52.438Z,98191.81
2023-05-22T15:14:21.826Z,98182.38
2023-05-22T15:16:50.503Z,98189.78
2023-05-22T15:19:19.485Z,98190.31
2023-05-22T15:21:48.405Z,98178.28
2023-05-22T15:24:18.533Z,98178.09
2023-05-22T15:26:47.160Z,98170.88
2023-05-22T15:29:15.938Z,98170.50
2023-05-22T15:31:44.397Z,98174.19
2023-05-22T15:34:13.134Z,98180.59
2023-05-22T15:36:41.754Z,98188.47
2023-05-22T15:39:10.699Z,98175.00
2023-05-22T15:41:41.193Z,98177.06
2023-05-22T15:44:11.505Z,98180.59
2023-05-22T15:46:40.204Z,98189.50
2023-05-22T15:49:08.868Z,98182.25
2023-05-22T15:51:37.734Z,98173.81
2023-05-22T15:54:09.489Z,98173.63
2023-05-22T15:56:39.887Z,98177.16
2023-05-22T15:59:08.525Z,98169.72
2023-05-22T16:01:37.249Z,98174.28
2023-05-22T16:04:06.703Z,98166.38
2023-05-22T16:06:35.390Z,98163.03
2023-05-22T16:09:04.034Z,98160.56
2023-05-22T16:11:33.461Z,98163.41
2023-05-22T16:14:03.542Z,98161.75
2023-05-22T16:16:32.321Z,98160.09
2023-05-22T16:19:01.936Z,98158.88
2023-05-22T16:21:31.222Z,98152.47
2023-05-22T16:24:00.005Z,98152.28
2023-05-22T16:26:28.831Z,98153.97
2023-05-22T16:28:57.231Z,98154.63
2023-05-22T16:31:27.061Z,98150.72
2023-05-22T16:33:55.973Z,98153.84
2023-05-22T16:36:27.018Z,98150.41
2023-05-22T16:38:55.784Z,98154.50
2023-05-22T16:41:24.220Z,98149.31
2023-05-22T16:43:53.060Z,98160.91
2023-05-22T16:46:21.671Z,98160.06
2023-05-22T16:48:51.492Z,98163.59
2023-05-22T16:51:19.936Z,98163.59
2023-05-22T16:53:48.395Z,98162.94
2023-05-22T16:56:20.615Z,98170.66
2023-05-22T16:58:49.039Z,98167.97
2023-05-22T17:01:17.860Z,98169.81
2023-05-22T17:03:46.607Z,98170.66
2023-05-22T17:06:18.281Z,98170.66
2023-05-22T17:08:47.949Z,98165.28
2023-05-22T17:11:16.345Z,98173.34
2023-05-22T17:13:44.755Z,98177.03
2023-05-22T17:16:13.603Z,98175.19
2023-05-22T17:18:42.250Z,98177.88
2023-05-22T17:21:10.862Z,98174.19
2023-05-22T17:23:40.642Z,98175.19
2023-05-22T17:26:09.300Z,98176.03
2023-05-22T17:28:37.907Z,98169.81
2023-05-22T17:31:06.414Z,98177.03
2023-05-22T17:33:35.001Z,98173.34
2023-05-22T17:36:03.373Z,98169.81
2023-05-22T17:38:32.095Z,98177.88
2023-05-22T17:41:02.169Z,98176.31
2023-05-22T17:43:30.644Z,98178.34
2023-05-22T17:45:59.582Z,98175.19
2023-05-22T17:48:28.310Z,98189.13
2023-05-22T17:50:56.783Z,98176.66
2023-05-22T17:53:25.552Z,98173.97
2023-05-22T17:55:54.192Z,98178.75
2023-05-22T17:58:24.329Z,98176.03
2023-05-22T18:00:52.861Z,98184.28
2023-05-22T18:03:21.617Z,98180.56
2023-05-22T18:05:52.343Z,98173.16
2023-05-22T18:08:21.589Z,98177.69
2023-05-22T18:10:50.191Z,98173.97
2023-05-22T18:13:19.348Z,98171.50
2023-05-22T18:15:50.308Z,98173.97
2023-05-22T18:18:19.222Z,98166.09
2023-05-22T18:20:48.336Z,98167.97
2023-05-22T18:23:17.129Z,98170.47
2023-05-22T18:25:47.392Z,98173.97
2023-05-22T18:28:15.953Z,98160.72
2023-05-22T18:30:45.766Z,98163.41
2023-05-22T18:33:16.485Z,98165.28
2023-05-22T18:35:45.247Z,98164.06
2023-05-22T18:38:14.062Z,98165.56
2023-05-22T18:40:43.039Z,98166.56
2023-05-22T18:43:11.739Z,98167.38
2023-05-22T18:45:40.704Z,98163.47
2023-05-22T18:48:09.456Z,98165.56
2023-05-22T18:50:39.801Z,98164.91
2023-05-22T18:53:08.302Z,98162.22
2023-05-22T18:55:37.056Z,98158.47
2023-05-22T18:58:05.910Z,98159.50
2023-05-22T19:00:34.612Z,98159.50
2023-05-22T19:03:03.823Z,98169.63
2023-05-22T19:05:32.421Z,98157.00
2023-05-22T19:08:02.249Z,98164.06
2023-05-22T19:10:30.974Z,98160.53
2023-05-22T19:12:59.459Z,98167.38
2023-05-22T19:15:28.215Z,98168.25
2023-05-22T19:17:57.586Z,98168.41
2023-05-22T19:20:26.151Z,98169.25
2023-05-22T19:22:56.440Z,98169.44
2023-05-22T19:25:26.592Z,98164.25
2023-05-22T19:27:55.322Z,98166.94
2023-05-22T19:30:24.000Z,98170.28
2023-05-22T19:32:55.896Z,98176.66
2023-05-22T19:35:24.484Z,98165.06
2023-05-22T19:37:53.023Z,98163.22
2023-05-22T19:40:21.831Z,98173.16
2023-05-22T19:42:51.696Z,98164.25
2023-05-22T19:45:20.206Z,98161.72
2023-05-22T19:47:48.706Z,98163.59
2023-05-22T19:50:17.645Z,98169.19
2023-05-22T19:52:46.444Z,98171.66
2023-05-22T19:55:15.025Z,98162.75
2023-05-22T19:57:44.462Z,98161.56
2023-05-22T20:00:16.603Z,98163.41
2023-05-22T20:02:45.193Z,98171.28
2023-05-22T20:05:14.642Z,98163.22
2023-05-22T20:07:43.676Z,98160.72
2023-05-22T20:10:13.039Z,98163.59
2023-05-22T20:12:42.103Z,98153.66
2023-05-22T20:15:15.257Z,98157.00
2023-05-22T20:17:47.709Z,98145.41
2023-05-22T20:20:16.617Z,98151.81
2023-05-22T20:22:45.364Z,98157.00
2023-05-22T20:25:14.408Z,98145.41
2023-05-22T20:27:43.059Z,98157.81
2023-05-22T20:30:14.386Z,98143.75
2023-05-22T20:32:46.127Z,98142.72
2023-05-22T20:35:18.513Z,98144.38
2023-05-22T20:37:47.668Z,98140.84
2023-05-22T20:40:16.369Z,98147.72
2023-05-22T20:42:44.875Z,98148.09
2023-05-22T20:45:16.400Z,98152.81
2023-05-22T20:47:44.994Z,98153.84
2023-05-22T20:50:14.181Z,98143.09
2023-05-22T20:52:42.869Z,98146.78
2023-05-22T20:55:14.762Z,98148.47
2023-05-22T20:57:43.237Z,98134.19
2023-05-22T21:00:18.023Z,98132.31
2023-05-22T21:05:44.584Z,98147.59
2023-05-22T21:08:13.100Z,98138.25
2023-05-22T21:12:57.061Z,98131.38
2023-05-22T21:15:25.764Z,98135.94
2023-05-22T21:17:54.332Z,98135.09
2023-05-22T21:20:22.808Z,98129.91
2023-05-22T21:22:51.296Z,98128.88
2023-05-22T21:25:19.751Z,98136.13
2023-05-22T21:27:49.413Z,98127.22
2023-05-22T21:30:19.313Z,98134.47
2023-05-22T21:32:47.806Z,98127.38
2023-05-22T21:35:16.281Z,98125.53
2023-05-22T21:37:44.874Z,98122.00
2023-05-22T21:40:14.360Z,98126.56
2023-05-22T21:42:47.052Z,98113.09
2023-05-22T21:45:16.015Z,98121.19
2023-05-22T21:47:46.276Z,98130.09
2023-05-22T21:50:14.778Z,98120.53
2023-05-22T21:52:44.271Z,98124.03
2023-05-22T21:55:13.016Z,98118.03
2023-05-22T21:57:41.414Z,98125.91
2023-05-22T22:00:11.517Z,98126.72
2023-05-22T22:02:40.006Z,98120.53
2023-05-22T22:05:11.949Z,98115.13
2023-05-22T22:07:40.438Z,98116.19
2023-05-22T22:10:10.082Z,98118.88
2023-05-22T22:12:38.515Z,98115.13
2023-05-22T22:15:08.469Z,98110.78
2023-05-22T22:17:37.419Z,98113.47
2023-05-22T22:20:07.304Z,98108.09
2023-05-22T22:22:37.135Z,98109.09
2023-05-22T22:25:06.694Z,98106.41
2023-05-22T22:27:35.126Z,98116.19
2023-05-22T22:30:03.667Z,98107.28
2023-05-22T22:32:32.211Z,98108.28
2023-05-22T22:35:00.812Z,98119.88
2023-05-22T22:37:29.206Z,98106.41
2023-05-22T22:39:58.937Z,98109.97
2023-05-22T22:42:27.394Z,98102.06
2023-05-22T22:44:56.199Z,98109.31
2023-05-22T22:47:25.306Z,98101.22
2023-05-22T22:49:53.744Z,98101.22
2023-05-22T22:52:22.150Z,98099.56
2023-05-22T22:54:51.069Z,98103.09
2023-05-22T22:57:20.850Z,98095.03
2023-05-22T22:59:49.446Z,98090.66
2023-05-22T23:02:17.879Z,98092.50
2023-05-22T23:04:46.475Z,98093.34
2023-05-22T23:07:15.679Z,98086.28
2023-05-22T23:09:44.433Z,98091.69
2023-05-22T23:12:13.050Z,98093.53
2023-05-22T23:14:44.240Z,98093.53
2023-05-22T23:17:12.651Z,98081.94
2023-05-22T23:19:41.160Z,98091.84
2023-05-22T23:22:09.584Z,98081.09
2023-05-22T23:24:38.274Z,98077.56
2023-05-22T23:27:07.204Z,98078.41
2023-05-22T23:29:35.636Z,98072.19
2023-05-22T23:32:05.795Z,98073.22
2023-05-22T23:34:34.226Z,98062.47
2023-05-22T23:37:02.901Z,98059.78
2023-05-22T23:39:31.260Z,98068.84
2023-05-22T23:42:02.196Z,98056.25
2023-05-22T23:44:31.896Z,98059.13
2023-05-22T23:47:01.019Z,98055.59
2023-05-22T23:49:31.063Z,98054.56
2023-05-22T23:51:59.475Z,98048.34
2023-05-22T23:54:27.850Z,98044.84
2023-05-22T23:56:56.450Z,98042.16
2023-05-22T23:59:24.842Z,98039.63
